| time (UTC) | temp C | wind direction | speed KPH | gust KPH | rain 1hr cm | rain 24hr cm | rain mn cm | humidity % | barometer mb |
| 20260504012530 | 17 | 0 | 0.0 | 1.6 | 0.00 | 0.00 | 0.00 | 44 | 1003.7 |
| 20260504012030 | 17 | 0 | 0.0 | 1.6 | 0.00 | 0.00 | 0.00 | 44 | 1003.7 |
| 20260504011546 | 17 | 254 | 0.0 | 1.6 | 0.00 | 0.00 | 0.00 | 43 | 1003.8 |
| 20260504011029 | 18 | 0 | 0.0 | 1.6 | 0.00 | 0.00 | 0.00 | 43 | 1003.9 |
| 20260504010530 | 18 | 0 | 0.0 | 3.2 | 0.00 | 0.00 | 0.00 | 43 | 1003.9 |
| 20260504010045 | 18 | 0 | 0.0 | 3.2 | 0.00 | 0.00 | 0.00 | 42 | 1003.9 |
| 20260504005531 | 18 | 265 | 0.0 | 3.2 | 0.00 | 0.00 | 0.00 | 41 | 1003.8 |
| 20260504005031 | 18 | 265 | 0.0 | 4.8 | 0.00 | 0.00 | 0.00 | 41 | 1003.7 |
| 20260504004543 | 19 | 250 | 1.6 | 4.8 | 0.00 | 0.00 | 0.00 | 40 | 1003.7 |
| 20260504004030 | 19 | 0 | 1.6 | 4.8 | 0.00 | 0.00 | 0.00 | 40 | 1003.8 |
| 20260504003531 | 19 | 275 | 0.0 | 4.8 | 0.00 | 0.00 | 0.00 | 40 | 1003.8 |
| 20260504003049 | 20 | 254 | 1.6 | 4.8 | 0.00 | 0.00 | 0.00 | 40 | 1003.7 |
| 20260504002530 | 20 | 266 | 1.6 | 4.8 | 0.00 | 0.00 | 0.00 | 40 | 1003.7 |
| 20260504002030 | 20 | 260 | 1.6 | 9.7 | 0.00 | 0.00 | 0.00 | 40 | 1003.6 |
| 20260504001542 | 20 | 269 | 3.2 | 11.3 | 0.00 | 0.00 | 0.00 | 39 | 1003.6 |
| 20260504001030 | 20 | 342 | 3.2 | 11.3 | 0.00 | 0.00 | 0.00 | 38 | 1003.6 |
| 20260504000530 | 20 | 267 | 3.2 | 9.7 | 0.00 | 0.00 | 0.00 | 38 | 1003.5 |
| 20260504000041 | 20 | 215 | 1.6 | 14.5 | 0.00 | 0.00 | 0.00 | 38 | 1003.5 |
| 20260503235530 | 20 | 180 | 3.2 | 14.5 | 0.00 | 0.00 | 0.00 | 38 | 1003.5 |
| 20260503235030 | 20 | 221 | 4.8 | 14.5 | 0.00 | 0.00 | 0.00 | 38 | 1003.4 |
| 20260503234548 | 21 | 263 | 3.2 | 11.3 | 0.00 | 0.00 | 0.00 | 40 | 1003.4 |
| 20260503234031 | 20 | 261 | 1.6 | 11.3 | 0.00 | 0.00 | 0.00 | 40 | 1003.5 |
| 20260503233530 | 21 | 250 | 3.2 | 9.7 | 0.00 | 0.00 | 0.00 | 39 | 1003.5 |
| 20260503233044 | 20 | 270 | 3.2 | 12.9 | 0.00 | 0.00 | 0.00 | 39 | 1003.4 |
| 20260503232530 | 20 | 240 | 4.8 | 17.7 | 0.00 | 0.00 | 0.00 | 40 | 1003.5 |
| 20260503232031 | 20 | 211 | 4.8 | 17.7 | 0.00 | 0.00 | 0.00 | 40 | 1003.6 |
| 20260503231542 | 20 | 229 | 6.4 | 14.5 | 0.00 | 0.00 | 0.00 | 40 | 1003.5 |
| 20260503231033 | 20 | 197 | 4.8 | 11.3 | 0.00 | 0.00 | 0.00 | 41 | 1003.5 |
| 20260503230530 | 20 | 227 | 4.8 | 17.7 | 0.00 | 0.00 | 0.00 | 40 | 1003.6 |
| 20260503230043 | 20 | 198 | 4.8 | 17.7 | 0.00 | 0.00 | 0.00 | 41 | 1003.7 |
| 20260503225534 | 20 | 198 | 4.8 | 22.5 | 0.00 | 0.00 | 0.00 | 42 | 1003.7 |
| 20260503225031 | 20 | 195 | 6.4 | 22.5 | 0.00 | 0.00 | 0.00 | 42 | 1003.8 |
| 20260503224547 | 20 | 192 | 8.0 | 19.3 | 0.00 | 0.00 | 0.00 | 41 | 1003.7 |
| 20260503224030 | 20 | 210 | 6.4 | 16.1 | 0.00 | 0.00 | 0.00 | 40 | 1003.9 |
| 20260503223530 | 20 | 194 | 4.8 | 12.9 | 0.00 | 0.00 | 0.00 | 42 | 1003.9 |
| 20260503223046 | 20 | 249 | 4.8 | 16.1 | 0.00 | 0.00 | 0.00 | 43 | 1003.9 |
| 20260503222530 | 20 | 239 | 4.8 | 16.1 | 0.00 | 0.00 | 0.00 | 43 | 1003.8 |
| 20260503222030 | 20 | 221 | 6.4 | 16.1 | 0.00 | 0.00 | 0.00 | 41 | 1003.9 |
| 20260503221544 | 20 | 279 | 6.4 | 19.3 | 0.00 | 0.00 | 0.00 | 42 | 1003.9 |
| 20260503221031 | 20 | 269 | 8.0 | 19.3 | 0.00 | 0.00 | 0.00 | 41 | 1003.8 |
| 20260503220533 | 20 | 221 | 9.7 | 19.3 | 0.00 | 0.00 | 0.00 | 42 | 1003.9 |
| 20260503220049 | 20 | 205 | 6.4 | 20.9 | 0.00 | 0.00 | 0.00 | 41 | 1004.0 |
| 20260503215530 | 20 | 258 | 6.4 | 20.9 | 0.00 | 0.00 | 0.00 | 42 | 1004.0 |
| 20260503215031 | 20 | 163 | 4.8 | 20.9 | 0.00 | 0.00 | 0.00 | 42 | 1004.0 |
| 20260503214540 | 20 | 224 | 11.3 | 20.9 | 0.00 | 0.00 | 0.00 | 40 | 1004.0 |
| 20260503214031 | 20 | 194 | 6.4 | 17.7 | 0.00 | 0.00 | 0.00 | 43 | 1004.2 |
| 20260503213530 | 20 | 217 | 4.8 | 16.1 | 0.00 | 0.00 | 0.00 | 42 | 1004.2 |
| 20260503213042 | 20 | 268 | 6.4 | 17.7 | 0.00 | 0.00 | 0.00 | 42 | 1004.2 |
| 20260503212530 | 20 | 246 | 8.0 | 25.7 | 0.00 | 0.00 | 0.00 | 42 | 1004.1 |
| 20260503212031 | 20 | 272 | 6.4 | 27.4 | 0.00 | 0.00 | 0.00 | 44 | 1004.2 |
| 20260503211547 | 20 | 259 | 9.7 | 27.4 | 0.00 | 0.00 | 0.00 | 43 | 1004.3 |
| 20260503211031 | 20 | 246 | 6.4 | 22.5 | 0.00 | 0.00 | 0.00 | 43 | 1004.3 |
| 20260503210531 | 19 | 242 | 6.4 | 17.7 | 0.00 | 0.00 | 0.00 | 45 | 1004.3 |
| 20260503210050 | 19 | 286 | 8.0 | 17.7 | 0.00 | 0.00 | 0.00 | 42 | 1004.3 |
| 20260503205534 | 19 | 250 | 8.0 | 17.7 | 0.00 | 0.00 | 0.00 | 43 | 1004.3 |
| 20260503205031 | 19 | 207 | 6.4 | 17.7 | 0.00 | 0.00 | 0.00 | 44 | 1004.4 |
| 20260503204542 | 19 | 226 | 6.4 | 17.7 | 0.00 | 0.00 | 0.00 | 43 | 1004.5 |
| 20260503204030 | 19 | 275 | 6.4 | 25.7 | 0.00 | 0.00 | 0.00 | 44 | 1004.5 |
| 20260503203530 | 19 | 283 | 8.0 | 25.7 | 0.00 | 0.00 | 0.00 | 43 | 1004.5 |
| 20260503203041 | 19 | 266 | 9.7 | 25.7 | 0.00 | 0.00 | 0.00 | 42 | 1004.6 |
| 20260503202530 | 19 | 224 | 6.4 | 24.1 | 0.00 | 0.00 | 0.00 | 44 | 1004.9 |
| 20260503202030 | 18 | 228 | 11.3 | 24.1 | 0.00 | 0.00 | 0.00 | 44 | 1004.9 |
| 20260503201547 | 18 | 186 | 11.3 | 24.1 | 0.00 | 0.00 | 0.00 | 43 | 1005.0 |
| 20260503201030 | 18 | 223 | 8.0 | 24.1 | 0.00 | 0.00 | 0.00 | 44 | 1005.1 |
| 20260503200530 | 18 | 207 | 9.7 | 24.1 | 0.00 | 0.00 | 0.00 | 44 | 1005.1 |
| 20260503200050 | 18 | 194 | 8.0 | 24.1 | 0.00 | 0.00 | 0.00 | 46 | 1005.1 |
| 20260503195531 | 18 | 240 | 8.0 | 27.4 | 0.00 | 0.00 | 0.00 | 44 | 1005.3 |
| 20260503195031 | 18 | 234 | 8.0 | 30.6 | 0.00 | 0.00 | 0.00 | 44 | 1005.3 |
| 20260503194544 | 18 | 217 | 12.9 | 30.6 | 0.00 | 0.00 | 0.00 | 42 | 1005.3 |
| 20260503194031 | 18 | 217 | 11.3 | 30.6 | 0.00 | 0.00 | 0.00 | 43 | 1005.4 |
| 20260503193531 | 18 | 159 | 9.7 | 24.1 | 0.00 | 0.00 | 0.00 | 43 | 1005.5 |
| 20260503193048 | 18 | 205 | 11.3 | 29.0 | 0.00 | 0.00 | 0.00 | 43 | 1005.5 |
| 20260503192530 | 18 | 203 | 11.3 | 29.0 | 0.00 | 0.00 | 0.00 | 44 | 1005.6 |
| 20260503192032 | 18 | 192 | 11.3 | 25.7 | 0.00 | 0.00 | 0.00 | 43 | 1005.5 |
| 20260503191540 | 18 | 214 | 11.3 | 32.2 | 0.00 | 0.00 | 0.00 | 44 | 1005.5 |
| 20260503191030 | 18 | 211 | 11.3 | 32.2 | 0.00 | 0.00 | 0.00 | 45 | 1005.7 |
| 20260503190530 | 17 | 204 | 12.9 | 30.6 | 0.00 | 0.00 | 0.00 | 44 | 1005.7 |
| 20260503190041 | 18 | 236 | 9.7 | 38.6 | 0.00 | 0.00 | 0.00 | 45 | 1005.8 |
| 20260503185531 | 17 | 163 | 17.7 | 38.6 | 0.00 | 0.00 | 0.00 | 44 | 1005.9 |
| 20260503185030 | 17 | 219 | 9.7 | 30.6 | 0.00 | 0.00 | 0.00 | 46 | 1005.8 |
| 20260503184600 | 17 | 195 | 12.9 | 30.6 | 0.00 | 0.00 | 0.00 | 44 | 1005.9 |
| 20260503184031 | 17 | 216 | 12.9 | 29.0 | 0.00 | 0.00 | 0.00 | 46 | 1005.9 |
| 20260503183531 | 17 | 154 | 12.9 | 33.8 | 0.00 | 0.00 | 0.00 | 47 | 1005.9 |
| 20260503183055 | 17 | 230 | 14.5 | 33.8 | 0.00 | 0.00 | 0.00 | 48 | 1006.2 |
| 20260503182533 | 17 | 222 | 12.9 | 33.8 | 0.00 | 0.00 | 0.00 | 49 | 1006.2 |
| 20260503182031 | 17 | 239 | 8.0 | 32.2 | 0.00 | 0.00 | 0.00 | 49 | 1006.2 |
| 20260503181541 | 16 | 171 | 14.5 | 32.2 | 0.00 | 0.00 | 0.00 | 48 | 1006.2 |
| 20260503181030 | 16 | 242 | 16.1 | 33.8 | 0.00 | 0.00 | 0.00 | 49 | 1006.3 |
| 20260503180529 | 16 | 222 | 12.9 | 33.8 | 0.00 | 0.00 | 0.00 | 50 | 1006.4 |
| 20260503180040 | 16 | 215 | 12.9 | 29.0 | 0.00 | 0.00 | 0.00 | 49 | 1006.4 |
| 20260503175530 | 16 | 188 | 9.7 | 33.8 | 0.00 | 0.00 | 0.00 | 50 | 1006.8 |
| 20260503175034 | 16 | 232 | 14.5 | 33.8 | 0.00 | 0.00 | 0.00 | 48 | 1006.9 |
| 20260503174547 | 16 | 230 | 14.5 | 33.8 | 0.00 | 0.00 | 0.00 | 48 | 1006.8 |
| 20260503174031 | 16 | 196 | 14.5 | 35.4 | 0.00 | 0.00 | 0.00 | 48 | 1006.8 |
| 20260503173531 | 16 | 246 | 14.5 | 35.4 | 0.00 | 0.00 | 0.00 | 48 | 1006.9 |
| 20260503173055 | 16 | 201 | 12.9 | 29.0 | 0.00 | 0.00 | 0.00 | 48 | 1006.9 |
| 20260503172531 | 16 | 202 | 11.3 | 35.4 | 0.00 | 0.00 | 0.00 | 48 | 1006.9 |
| 20260503172031 | 16 | 229 | 14.5 | 35.4 | 0.00 | 0.00 | 0.00 | 47 | 1007.0 |
| 20260503171542 | 16 | 191 | 12.9 | 32.2 | 0.00 | 0.00 | 0.00 | 48 | 1007.0 |
| 20260503171033 | 16 | 258 | 14.5 | 33.8 | 0.00 | 0.00 | 0.00 | 49 | 1007.1 |
| 20260503170531 | 16 | 207 | 9.7 | 33.8 | 0.00 | 0.00 | 0.00 | 53 | 1007.2 |
| 20260503150530 | 11 | 235 | 9.7 | 19.3 | 0.00 | 0.00 | 0.00 | 72 | 1008.7 |
| 20260503131030 | 11 | 198 | 6.4 | 24.1 | 0.00 | 0.00 | 0.00 | 63 | 1010.0 |
| 20260503130529 | 11 | 240 | 9.7 | 24.1 | 0.00 | 0.00 | 0.00 | 62 | 1010.0 |
| 20260503110531 | 8 | 233 | 3.2 | 14.5 | 0.00 | 0.00 | 0.00 | 56 | 1010.3 |
| 20260503081610 | 8 | 213 | 3.2 | 12.9 | 0.00 | 0.00 | 0.00 | 54 | 1011.6 |
| 20260503081029 | 8 | 206 | 4.8 | 12.9 | 0.00 | 0.00 | 0.00 | 54 | 1011.6 |
| 20260503080530 | 8 | 220 | 3.2 | 12.9 | 0.00 | 0.00 | 0.00 | 55 | 1011.6 |
| 20260503072530 | 7 | 208 | 3.2 | 12.9 | 0.00 | 0.00 | 0.00 | 54 | 1011.9 |
| 20260503072031 | 7 | 221 | 3.2 | 12.9 | 0.00 | 0.00 | 0.00 | 54 | 1011.9 |
| 20260503071540 | 7 | 192 | 4.8 | 12.9 | 0.00 | 0.00 | 0.00 | 54 | 1011.9 |
| 20260503071029 | 7 | 223 | 4.8 | 12.9 | 0.00 | 0.00 | 0.00 | 54 | 1011.9 |
| 20260503070529 | 7 | 191 | 3.2 | 12.9 | 0.00 | 0.00 | 0.00 | 54 | 1011.9 |
| 20260503055029 | 8 | 0 | 1.6 | 11.3 | 0.00 | 0.00 | 0.00 | 50 | 1012.5 |
| 20260503054547 | 8 | 211 | 3.2 | 11.3 | 0.00 | 0.00 | 0.00 | 50 | 1012.6 |
| 20260503054031 | 8 | 202 | 3.2 | 9.7 | 0.00 | 0.00 | 0.00 | 50 | 1012.7 |
| 20260503053529 | 8 | 217 | 3.2 | 8.0 | 0.00 | 0.00 | 0.00 | 50 | 1012.6 |
| 20260503053046 | 8 | 214 | 3.2 | 8.0 | 0.00 | 0.00 | 0.00 | 49 | 1012.7 |
| 20260503052530 | 8 | 217 | 1.6 | 9.7 | 0.00 | 0.00 | 0.00 | 49 | 1012.7 |
| 20260503052030 | 9 | 192 | 3.2 | 11.3 | 0.00 | 0.00 | 0.00 | 49 | 1012.7 |
| 20260503051541 | 9 | 208 | 3.2 | 11.3 | 0.00 | 0.00 | 0.00 | 48 | 1012.9 |
| 20260503051029 | 9 | 225 | 3.2 | 8.0 | 0.00 | 0.00 | 0.00 | 48 | 1012.9 |
| 20260503050531 | 9 | 205 | 3.2 | 11.3 | 0.00 | 0.00 | 0.00 | 48 | 1013.0 |
| 20260503050043 | 9 | 213 | 3.2 | 11.3 | 0.00 | 0.00 | 0.00 | 48 | 1012.9 |
| 20260503045533 | 9 | 0 | 3.2 | 11.3 | 0.00 | 0.00 | 0.00 | 48 | 1012.9 |
| 20260503045028 | 9 | 0 | 1.6 | 8.0 | 0.00 | 0.00 | 0.00 | 48 | 1013.0 |
| 20260503044543 | 9 | 217 | 3.2 | 11.3 | 0.00 | 0.00 | 0.00 | 48 | 1013.0 |
| 20260503044029 | 9 | 202 | 3.2 | 11.3 | 0.00 | 0.00 | 0.00 | 48 | 1013.0 |
| 20260503043529 | 9 | 202 | 3.2 | 11.3 | 0.00 | 0.00 | 0.00 | 48 | 1013.1 |
| 20260503043043 | 9 | 222 | 3.2 | 11.3 | 0.00 | 0.00 | 0.00 | 48 | 1013.1 |
| 20260503042529 | 9 | 0 | 3.2 | 11.3 | 0.00 | 0.00 | 0.00 | 48 | 1013.1 |
| 20260503042029 | 8 | 213 | 3.2 | 9.7 | 0.00 | 0.00 | 0.00 | 48 | 1013.1 |
| 20260503041548 | 8 | 209 | 3.2 | 8.0 | 0.00 | 0.00 | 0.00 | 48 | 1013.2 |
| 20260503041028 | 8 | 171 | 1.6 | 8.0 | 0.00 | 0.00 | 0.00 | 48 | 1013.2 |
| 20260503040529 | 8 | 202 | 3.2 | 9.7 | 0.00 | 0.00 | 0.00 | 48 | 1013.4 |
| 20260503040048 | 8 | 213 | 1.6 | 9.7 | 0.00 | 0.00 | 0.00 | 48 | 1013.4 |
| 20260503035530 | 8 | 224 | 3.2 | 9.7 | 0.00 | 0.00 | 0.00 | 48 | 1013.5 |
| 20260503035029 | 8 | 236 | 3.2 | 9.7 | 0.00 | 0.00 | 0.00 | 48 | 1013.6 |
| 20260503034548 | 8 | 202 | 1.6 | 9.7 | 0.00 | 0.00 | 0.00 | 48 | 1013.4 |
| 20260503034030 | 8 | 221 | 3.2 | 9.7 | 0.00 | 0.00 | 0.00 | 47 | 1013.6 |
| 20260503033528 | 8 | 214 | 3.2 | 8.0 | 0.00 | 0.00 | 0.00 | 47 | 1013.5 |
| 20260503033058 | 8 | 237 | 1.6 | 8.0 | 0.00 | 0.00 | 0.00 | 47 | 1013.6 |
| 20260503032529 | 8 | 360 | 1.6 | 8.0 | 0.00 | 0.00 | 0.00 | 48 | 1013.6 |
| 20260503032030 | 9 | 202 | 1.6 | 8.0 | 0.00 | 0.00 | 0.00 | 48 | 1013.6 |
| 20260503031556 | 9 | 186 | 1.6 | 8.0 | 0.00 | 0.00 | 0.00 | 48 | 1013.7 |
| 20260503031031 | 9 | 200 | 1.6 | 6.4 | 0.00 | 0.00 | 0.00 | 47 | 1013.6 |
| 20260503030530 | 9 | 201 | 0.0 | 4.8 | 0.00 | 0.00 | 0.00 | 48 | 1013.7 |
| 20260503030049 | 9 | 186 | 1.6 | 4.8 | 0.00 | 0.00 | 0.00 | 47 | 1013.8 |
| 20260503025529 | 9 | 221 | 1.6 | 6.4 | 0.00 | 0.00 | 0.00 | 47 | 1013.8 |
| 20260503025029 | 9 | 200 | 1.6 | 6.4 | 0.00 | 0.00 | 0.00 | 47 | 1013.9 |
| 20260503024556 | 9 | 192 | 1.6 | 4.8 | 0.00 | 0.00 | 0.00 | 47 | 1013.8 |
| 20260503024032 | 9 | 207 | 1.6 | 4.8 | 0.00 | 0.00 | 0.00 | 47 | 1013.8 |
| 20260503023528 | 10 | 222 | 1.6 | 4.8 | 0.00 | 0.00 | 0.00 | 48 | 1013.8 |
| 20260503023042 | 10 | 199 | 0.0 | 4.8 | 0.00 | 0.00 | 0.00 | 47 | 1013.8 |
| 20260503022529 | 10 | 205 | 0.0 | 4.8 | 0.00 | 0.00 | 0.00 | 47 | 1013.8 |
| 20260503022032 | 10 | 209 | 1.6 | 4.8 | 0.00 | 0.00 | 0.00 | 46 | 1013.8 |
| 20260503021551 | 10 | 229 | 0.0 | 4.8 | 0.00 | 0.00 | 0.00 | 46 | 1013.8 |
| 20260503021029 | 10 | 0 | 0.0 | 3.2 | 0.00 | 0.00 | 0.00 | 45 | 1013.8 |
| 20260503020530 | 10 | 0 | 0.0 | 4.8 | 0.00 | 0.00 | 0.00 | 44 | 1013.6 |
| 20260503020046 | 10 | 211 | 1.6 | 4.8 | 0.00 | 0.00 | 0.00 | 44 | 1013.7 |
| 20260503015530 | 11 | 220 | 1.6 | 4.8 | 0.00 | 0.00 | 0.00 | 43 | 1013.6 |
| 20260503015029 | 11 | 195 | 0.0 | 4.8 | 0.00 | 0.00 | 0.00 | 43 | 1013.5 |
| 20260503014546 | 11 | 0 | 1.6 | 6.4 | 0.00 | 0.00 | 0.00 | 42 | 1013.6 |
| 20260503014029 | 11 | 218 | 1.6 | 6.4 | 0.00 | 0.00 | 0.00 | 41 | 1013.6 |
| 20260503013529 | 11 | 207 | 1.6 | 6.4 | 0.00 | 0.00 | 0.00 | 41 | 1013.5 |
| 20260503013047 | 11 | 213 | 1.6 | 4.8 | 0.00 | 0.00 | 0.00 | 40 | 1013.6 |